Maersk Danang — A8PS5 — position and weather

sailwx.info

Track history (hours):
 
Tides and Currents Weather Stations Pressure Air Temp Water Temp Dewpoint Dewpoint Depression Visibility Wind Speed Wind Dir Waves Ship Positions

Maersk Danang

Last reported at 2016-Jul-20 07:30 UTC. Time now 2016-Jul-25 00:18 UTC.
Position N 25°01' E 119°39'.

Length 294 m; draft 9.4 m.

Type: Ship (hazmat cat A). MMSI: 636091595.

Date/timePositionNaut miles runAvg speedWind from/ knotsBaromVisibWave heightAir tempDewpointWater temp
2016-Jul-20 07:30N 25°01' E 119°39'8521.0
2016-Jul-20 03:27N 24°06' E 118°27'4721.5
2016-Jul-20 01:16N 23°35' E 117°48'5921.8
2016-Jul-19 22:33N 22°59' E 116°57'12 0.4
2016-Jul-18 20:12N 22°52' E 116°46'1317.9
2016-Jul-18 19:28N 22°59' E 116°58'1617.9
2016-Jul-18 18:33N 23°08' E 117°13'3618.1
2016-Jul-18 16:33N 23°31' E 117°44'2118.4
2016-Jul-18 15:25N 23°47' E 117°59'1618.5
2016-Jul-18 14:33N 23°58' E 118°11'1616.1
2016-Jul-18 13:33N 24°13' E 118°17'1413.7
2016-Jul-18 12:33N 24°24' E 118°07'5 5.4
2016-Jul-18 11:33N 24°27' E 118°02'0 0.0
2016-Jul-18 10:33N 24°27' E 118°02'0 0.0
2016-Jul-18 09:32N 24°27' E 118°02'0 0.0
2016-Jul-18 08:29N 24°27' E 118°02'0 0.0
2016-Jul-18 07:32N 24°27' E 118°02'0 0.0
2016-Jul-18 06:32N 24°27' E 118°02'0 0.0
2016-Jul-18 05:32N 24°27' E 118°02'4 3.9
2016-Jul-18 04:34N 24°25' E 118°05'1010.4
2016-Jul-18 03:33N 24°17' E 118°13'1716.7
2016-Jul-18 02:32N 24°18' E 118°32'2020.1
2016-Jul-18 01:33N 24°30' E 118°49'2020.2
2016-Jul-18 00:33N 24°42' E 119°07'4320.0
2016-Jul-17 22:23N 25°07' E 119°46'30220.4
2016-Jul-17 07:33N 29°35' E 122°25'1616.3
2016-Jul-17 06:33N 29°48' E 122°14'12 6.0
2016-Jul-17 04:33N 29°54' E 122°02'0 0.0
2016-Jul-17 03:31N 29°54' E 122°02'0 0.0
2016-Jul-17 02:33N 29°54' E 122°02'0 0.0
2016-Jul-17 01:33N 29°54' E 122°02'0 0.0
2016-Jul-17 00:33N 29°54' E 122°02'0 0.0
2016-Jul-16 23:33N 29°54' E 122°02'0 0.1
2016-Jul-16 22:33N 29°54' E 122°02'0 0.1
2016-Jul-16 21:33N 29°54' E 122°02'0 0.0
2016-Jul-16 20:33N 29°54' E 122°02'0 0.1
2016-Jul-16 19:33N 29°54' E 122°02'0 0.1
2016-Jul-16 18:33N 29°54' E 122°02'0 0.0
2016-Jul-16 17:32N 29°54' E 122°02'0 0.0
2016-Jul-16 16:33N 29°54' E 122°02'0 0.0
2016-Jul-16 15:33N 29°54' E 122°02'2 1.9
2016-Jul-16 14:33N 29°54' E 122°04'8 8.2
2016-Jul-16 13:31N 29°50' E 122°13'1010.2
2016-Jul-16 12:31N 29°45' E 122°23'3 2.4
2016-Jul-16 11:18N 29°45' E 122°26'0 0.0
2016-Jul-16 02:33N 29°45' E 122°26'0 0.0
2016-Jul-16 01:26N 29°45' E 122°26'0 0.0
2016-Jul-15 23:33N 29°45' E 122°26'3 3.3
2016-Jul-15 22:33N 29°43' E 122°29'8 7.8
2016-Jul-15 21:33N 29°41' E 122°38'8 6.9
2016-Jul-15 20:26N 29°45' E 122°46'7 7.6
2016-Jul-15 19:33N 29°49' E 122°52'22 7.1
2016-Jul-15 16:25N 30°03' E 123°11'21 5.0
2016-Jul-15 12:16N 30°20' E 122°57'5 6.8
2016-Jul-15 11:32N 30°23' E 122°52'6 6.6
2016-Jul-15 10:33N 30°27' E 122°46'6 6.1
2016-Jul-15 09:31N 30°29' E 122°39'7 7.0
2016-Jul-15 08:31N 30°30' E 122°31'6 0.4
2016-Jul-14 17:32N 30°33' E 122°37'1615.6
2016-Jul-14 16:30N 30°39' E 122°55'  
Track history (hours):
 
Tides and Currents Weather Stations Pressure Air Temp Water Temp Dewpoint Dewpoint Depression Visibility Wind Speed Wind Dir Waves Ship Positions

Maersk Danang

Last reported at 2016-Jul-20 07:30 UTC. Time now 2016-Jul-25 00:18 UTC.
Position N 25°01' E 119°39'.

Length 294 m; draft 9.4 m.

Type: Ship (hazmat cat A). MMSI: 636091595.

Date/timePositionNaut miles runAvg speedWind from/ knotsBaromVisibWave heightAir tempDewpointWater temp
2016-Jul-20 07:30N 25°01' E 119°39'8521.0
2016-Jul-20 03:27N 24°06' E 118°27'4721.5
2016-Jul-20 01:16N 23°35' E 117°48'5921.8
2016-Jul-19 22:33N 22°59' E 116°57'12 0.4
2016-Jul-18 20:12N 22°52' E 116°46'1317.9
2016-Jul-18 19:28N 22°59' E 116°58'1617.9
2016-Jul-18 18:33N 23°08' E 117°13'3618.1
2016-Jul-18 16:33N 23°31' E 117°44'2118.4
2016-Jul-18 15:25N 23°47' E 117°59'1618.5
2016-Jul-18 14:33N 23°58' E 118°11'1616.1
2016-Jul-18 13:33N 24°13' E 118°17'1413.7
2016-Jul-18 12:33N 24°24' E 118°07'5 5.4
2016-Jul-18 11:33N 24°27' E 118°02'0 0.0
2016-Jul-18 10:33N 24°27' E 118°02'0 0.0
2016-Jul-18 09:32N 24°27' E 118°02'0 0.0
2016-Jul-18 08:29N 24°27' E 118°02'0 0.0
2016-Jul-18 07:32N 24°27' E 118°02'0 0.0
2016-Jul-18 06:32N 24°27' E 118°02'0 0.0
2016-Jul-18 05:32N 24°27' E 118°02'4 3.9
2016-Jul-18 04:34N 24°25' E 118°05'1010.4
2016-Jul-18 03:33N 24°17' E 118°13'1716.7
2016-Jul-18 02:32N 24°18' E 118°32'2020.1
2016-Jul-18 01:33N 24°30' E 118°49'2020.2
2016-Jul-18 00:33N 24°42' E 119°07'4320.0
2016-Jul-17 22:23N 25°07' E 119°46'30220.4
2016-Jul-17 07:33N 29°35' E 122°25'1616.3
2016-Jul-17 06:33N 29°48' E 122°14'12 6.0
2016-Jul-17 04:33N 29°54' E 122°02'0 0.0
2016-Jul-17 03:31N 29°54' E 122°02'0 0.0
2016-Jul-17 02:33N 29°54' E 122°02'0 0.0
2016-Jul-17 01:33N 29°54' E 122°02'0 0.0
2016-Jul-17 00:33N 29°54' E 122°02'0 0.0
2016-Jul-16 23:33N 29°54' E 122°02'0 0.1
2016-Jul-16 22:33N 29°54' E 122°02'0 0.1
2016-Jul-16 21:33N 29°54' E 122°02'0 0.0
2016-Jul-16 20:33N 29°54' E 122°02'0 0.1
2016-Jul-16 19:33N 29°54' E 122°02'0 0.1
2016-Jul-16 18:33N 29°54' E 122°02'0 0.0
2016-Jul-16 17:32N 29°54' E 122°02'0 0.0
2016-Jul-16 16:33N 29°54' E 122°02'0 0.0
2016-Jul-16 15:33N 29°54' E 122°02'2 1.9
2016-Jul-16 14:33N 29°54' E 122°04'8 8.2
2016-Jul-16 13:31N 29°50' E 122°13'1010.2
2016-Jul-16 12:31N 29°45' E 122°23'3 2.4
2016-Jul-16 11:18N 29°45' E 122°26'0 0.0
2016-Jul-16 02:33N 29°45' E 122°26'0 0.0
2016-Jul-16 01:26N 29°45' E 122°26'0 0.0
2016-Jul-15 23:33N 29°45' E 122°26'3 3.3
2016-Jul-15 22:33N 29°43' E 122°29'8 7.8
2016-Jul-15 21:33N 29°41' E 122°38'8 6.9
2016-Jul-15 20:26N 29°45' E 122°46'7 7.6
2016-Jul-15 19:33N 29°49' E 122°52'22 7.1
2016-Jul-15 16:25N 30°03' E 123°11'21 5.0
2016-Jul-15 12:16N 30°20' E 122°57'5 6.8
2016-Jul-15 11:32N 30°23' E 122°52'6 6.6
2016-Jul-15 10:33N 30°27' E 122°46'6 6.1
2016-Jul-15 09:31N 30°29' E 122°39'7 7.0
2016-Jul-15 08:31N 30°30' E 122°31'6 0.4
2016-Jul-14 17:32N 30°33' E 122°37'1615.6
2016-Jul-14 16:30N 30°39' E 122°55'  

Dump ship's entire track history